Time;durP1;ratioP1;P1;durP2;ratioP2;P2;SDS_P1;SDS_P2;PMS_P1;PMS_P2;Temp;Humidity;BMP_temperature;BMP_pressure;BME280_temperature;BME280_humidity;BME280_pressure;Samples;Min_cycle;Max_cycle;Signal;HPM_P1;HPM_P2
2021/10/16 00:00:23;;;;;;;;;;;11.20;99.90;;;;;;4977454;28;19913;-72
2021/10/16 00:02:49;;;;;;;;;;;11.20;99.90;;;;;;4977402;28;20008;-76
2021/10/16 00:05:14;;;;;;;;;;;11.20;99.90;;;;;;4977367;28;19905;-69
2021/10/16 00:07:40;;;;;;;;;;;11.20;99.90;;;;;;4977296;28;19913;-73
2021/10/16 00:10:06;;;;;;;;;;;11.00;99.90;;;;;;4976412;28;19906;-73
2021/10/16 00:12:32;;;;;;;;;;;10.80;99.90;;;;;;4977187;28;19960;-71
2021/10/16 00:14:58;;;;;;;;;;;10.80;99.90;;;;;;4977196;28;19945;-71
2021/10/16 00:17:23;;;;;;;;;;;10.80;99.90;;;;;;4977304;28;20374;-72
2021/10/16 00:19:49;;;;;;;;;;;10.80;99.90;;;;;;4977339;28;20362;-77
2021/10/16 00:22:15;;;;;;;;;;;11.00;99.90;;;;;;4977361;28;19906;-74
2021/10/16 00:24:40;;;;;;;;;;;11.00;99.90;;;;;;4976954;28;19906;-73
2021/10/16 00:27:06;;;;;;;;;;;10.90;99.90;;;;;;4976737;28;19920;-75
2021/10/16 00:29:31;;;;;;;;;;;10.70;99.90;;;;;;4977177;28;19973;-71
2021/10/16 00:31:57;;;;;;;;;;;10.60;99.90;;;;;;4976832;28;20389;-73
2021/10/16 00:34:22;;;;;;;;;;;10.60;99.90;;;;;;4977090;28;19997;-75
2021/10/16 00:36:48;;;;;;;;;;;10.60;99.90;;;;;;4976718;28;19914;-71
2021/10/16 00:39:14;;;;;;;;;;;10.60;99.90;;;;;;4976968;28;19906;-72
2021/10/16 00:41:39;;;;;;;;;;;10.60;99.90;;;;;;4976624;28;20366;-74
2021/10/16 00:44:12;;;;;;;;;;;10.60;99.90;;;;;;4976601;28;19913;-72
2021/10/16 00:46:37;;;;;;;;;;;10.60;99.90;;;;;;4976855;28;20286;-75
2021/10/16 00:49:03;;;;;;;;;;;10.70;99.90;;;;;;4976530;28;19913;-74
2021/10/16 00:51:28;;;;;;;;;;;10.80;99.90;;;;;;4976477;28;19910;-73
2021/10/16 00:53:54;;;;;;;;;;;10.80;99.90;;;;;;4977005;28;19906;-74
2021/10/16 00:56:19;;;;;;;;;;;10.70;99.90;;;;;;4976318;28;19906;-71
2021/10/16 00:58:45;;;;;;;;;;;10.80;99.90;;;;;;4976345;28;19913;-71
2021/10/16 01:01:10;;;;;;;;;;;10.90;99.90;;;;;;4976577;28;19906;-74
2021/10/16 01:03:36;;;;;;;;;;;10.80;99.90;;;;;;4976246;28;20279;-73
2021/10/16 01:06:02;;;;;;;;;;;10.60;99.90;;;;;;4976772;28;19921;-69
2021/10/16 01:08:28;;;;;;;;;;;10.60;99.90;;;;;;4976168;28;19917;-73
2021/10/16 01:10:54;;;;;;;;;;;10.70;99.90;;;;;;4976374;28;19913;-71
2021/10/16 01:13:19;;;;;;;;;;;10.80;99.90;;;;;;4976363;28;20277;-73
2021/10/16 01:15:45;;;;;;;;;;;10.80;99.90;;;;;;4976018;28;19945;-70
2021/10/16 01:18:12;;;;;;;;;;;10.90;99.90;;;;;;4976170;28;20273;-74
2021/10/16 01:20:38;;;;;;;;;;;11.00;99.90;;;;;;4975919;28;19969;-74
2021/10/16 01:23:04;;;;;;;;;;;10.90;99.90;;;;;;4976355;28;19910;-70
2021/10/16 01:25:30;;;;;;;;;;;11.00;99.90;;;;;;4975698;28;19960;-72
2021/10/16 01:27:56;;;;;;;;;;;11.00;99.90;;;;;;4976110;28;19905;-71
2021/10/16 01:30:23;;;;;;;;;;;10.90;99.90;;;;;;4976034;28;19910;-74
2021/10/16 01:32:49;;;;;;;;;;;11.00;99.90;;;;;;4975968;28;19906;-73
2021/10/16 01:35:14;;;;;;;;;;;11.00;99.90;;;;;;4975727;28;19956;-71
2021/10/16 01:37:41;;;;;;;;;;;10.90;99.90;;;;;;4975561;28;20366;-73
2021/10/16 01:40:07;;;;;;;;;;;10.80;99.90;;;;;;4975587;28;19913;-71
2021/10/16 01:42:35;;;;;;;;;;;10.90;99.90;;;;;;4975534;28;20314;-74
2021/10/16 01:45:00;;;;;;;;;;;10.90;99.90;;;;;;4975501;28;19913;-74
2021/10/16 01:47:26;;;;;;;;;;;10.80;99.90;;;;;;4975479;28;19906;-73
2021/10/16 01:49:54;;;;;;;;;;;10.80;99.90;;;;;;4975447;28;19913;-72
2021/10/16 01:52:22;;;;;;;;;;;10.90;99.90;;;;;;4975417;28;19913;-74
2021/10/16 01:54:47;;;;;;;;;;;10.90;99.90;;;;;;4975356;28;19910;-73
2021/10/16 01:57:13;;;;;;;;;;;10.80;99.90;;;;;;4975513;28;19965;-76
2021/10/16 01:59:39;;;;;;;;;;;10.80;99.90;;;;;;4975323;28;19952;-73
2021/10/16 02:02:05;;;;;;;;;;;10.60;99.90;;;;;;4975275;28;19957;-71
2021/10/16 02:04:30;;;;;;;;;;;10.50;99.90;;;;;;4975506;28;19913;-75
2021/10/16 02:06:56;;;;;;;;;;;10.60;99.90;;;;;;4975151;28;19906;-74
2021/10/16 02:09:21;;;;;;;;;;;10.70;99.90;;;;;;4975406;28;20377;-69
2021/10/16 02:11:47;;;;;;;;;;;10.80;99.90;;;;;;4975104;28;19916;-75
2021/10/16 02:14:13;;;;;;;;;;;10.80;99.90;;;;;;4975348;28;20261;-74
2021/10/16 02:16:38;;;;;;;;;;;10.80;99.90;;;;;;4973731;28;19910;-72
2021/10/16 02:19:04;;;;;;;;;;;10.80;99.90;;;;;;4975067;28;19916;-75
2021/10/16 02:21:29;;;;;;;;;;;10.80;99.90;;;;;;4975061;28;20259;-72
2021/10/16 02:23:55;;;;;;;;;;;10.80;99.90;;;;;;4975191;28;19912;-74
2021/10/16 02:26:21;;;;;;;;;;;10.70;99.90;;;;;;4974775;28;19992;-71
2021/10/16 02:28:46;;;;;;;;;;;10.60;99.90;;;;;;4975513;28;19906;-73
2021/10/16 02:31:12;;;;;;;;;;;10.60;99.90;;;;;;4974896;28;19953;-73
2021/10/16 02:33:37;;;;;;;;;;;10.50;99.90;;;;;;4978337;28;20386;-72
2021/10/16 02:36:03;;;;;;;;;;;10.50;99.90;;;;;;4981344;28;19910;-74
2021/10/16 02:38:29;;;;;;;;;;;10.60;99.90;;;;;;4981254;28;19914;-73
2021/10/16 02:40:54;;;;;;;;;;;10.60;99.90;;;;;;4981279;28;19906;-73
2021/10/16 02:43:20;;;;;;;;;;;10.60;99.90;;;;;;4981850;28;19906;-69
2021/10/16 02:45:45;;;;;;;;;;;10.60;99.90;;;;;;4981498;28;19914;-75
2021/10/16 02:48:11;;;;;;;;;;;10.80;99.90;;;;;;4981217;28;19906;-76
2021/10/16 02:50:36;;;;;;;;;;;10.70;99.90;;;;;;4981449;28;19905;-72
2021/10/16 02:53:02;;;;;;;;;;;10.60;99.90;;;;;;4981134;28;19906;-75
2021/10/16 02:55:27;;;;;;;;;;;10.60;99.90;;;;;;4981156;28;20000;-72
2021/10/16 02:57:53;;;;;;;;;;;10.60;99.90;;;;;;4981070;28;20285;-72
2021/10/16 03:00:18;;;;;;;;;;;10.60;99.90;;;;;;4981352;28;19906;-71
2021/10/16 03:02:44;;;;;;;;;;;10.60;99.90;;;;;;4981055;28;19906;-72
2021/10/16 03:05:09;;;;;;;;;;;10.60;99.90;;;;;;4981060;28;19933;-75
2021/10/16 03:07:35;;;;;;;;;;;10.50;99.90;;;;;;4981005;28;19906;-71
2021/10/16 03:10:01;;;;;;;;;;;10.40;99.90;;;;;;4981523;28;19953;-72
2021/10/16 03:12:26;;;;;;;;;;;10.40;99.90;;;;;;4980996;28;19906;-71
2021/10/16 03:14:52;;;;;;;;;;;10.60;99.90;;;;;;4980985;28;19906;-75
2021/10/16 03:17:17;;;;;;;;;;;10.60;99.90;;;;;;4980846;28;19917;-74
2021/10/16 03:19:43;;;;;;;;;;;10.60;99.90;;;;;;4981200;28;19910;-70
2021/10/16 03:22:09;;;;;;;;;;;10.60;99.90;;;;;;4980804;28;20358;-71
2021/10/16 03:24:36;;;;;;;;;;;10.80;99.90;;;;;;4981110;28;20280;-75
2021/10/16 03:27:01;;;;;;;;;;;10.70;99.90;;;;;;4980491;28;20379;-72
2021/10/16 03:29:27;;;;;;;;;;;10.60;99.90;;;;;;4980829;28;19921;-73
2021/10/16 03:31:52;;;;;;;;;;;10.60;99.90;;;;;;4981101;28;19910;-73
2021/10/16 03:34:18;;;;;;;;;;;10.60;99.90;;;;;;4980827;28;19906;-75
2021/10/16 03:36:44;;;;;;;;;;;10.50;99.90;;;;;;4981242;28;19914;-70
2021/10/16 03:39:09;;;;;;;;;;;10.70;99.90;;;;;;4980813;28;19906;-75
2021/10/16 03:41:35;;;;;;;;;;;10.50;99.90;;;;;;4981041;28;20259;-71
2021/10/16 03:44:00;;;;;;;;;;;10.50;99.90;;;;;;4980356;28;20314;-72
2021/10/16 03:46:26;;;;;;;;;;;10.50;99.90;;;;;;4976969;28;19906;-73
2021/10/16 03:48:51;;;;;;;;;;;10.50;99.90;;;;;;4977932;28;19953;-72
2021/10/16 03:51:17;;;;;;;;;;;10.50;99.90;;;;;;4977622;28;19910;-72
2021/10/16 03:53:42;;;;;;;;;;;10.40;99.90;;;;;;4977828;28;20251;-71
2021/10/16 03:56:08;;;;;;;;;;;10.20;99.90;;;;;;4977508;28;19910;-72
2021/10/16 03:58:33;;;;;;;;;;;10.10;99.90;;;;;;4977380;28;19910;-75
2021/10/16 04:01:03;;;;;;;;;;;10.10;99.90;;;;;;4977726;28;19906;-75
2021/10/16 04:03:29;;;;;;;;;;;10.00;99.90;;;;;;4977373;28;19913;-73
2021/10/16 04:05:55;;;;;;;;;;;10.20;99.90;;;;;;4977670;28;20286;-71
2021/10/16 04:08:21;;;;;;;;;;;10.40;99.90;;;;;;4977302;28;19910;-75
2021/10/16 04:10:47;;;;;;;;;;;10.50;99.90;;;;;;4977258;28;19906;-71
2021/10/16 04:13:12;;;;;;;;;;;10.50;99.90;;;;;;4977530;28;19910;-70
2021/10/16 04:15:38;;;;;;;;;;;10.50;99.90;;;;;;4977155;28;20314;-74
2021/10/16 04:18:04;;;;;;;;;;;10.60;99.90;;;;;;4977346;28;19917;-73
2021/10/16 04:20:29;;;;;;;;;;;10.50;99.90;;;;;;4977122;28;19906;-73
2021/10/16 04:22:55;;;;;;;;;;;10.50;99.90;;;;;;4977027;28;19906;-75
2021/10/16 04:25:21;;;;;;;;;;;10.40;99.90;;;;;;4976831;28;19910;-74
2021/10/16 04:27:46;;;;;;;;;;;10.40;99.90;;;;;;4977261;28;19992;-74
2021/10/16 04:30:12;;;;;;;;;;;10.40;99.90;;;;;;4975648;28;20288;-73
2021/10/16 04:32:37;;;;;;;;;;;10.30;99.90;;;;;;4977143;28;19910;-74
2021/10/16 04:35:04;;;;;;;;;;;10.40;99.90;;;;;;4976790;28;19906;-69
2021/10/16 04:37:30;;;;;;;;;;;10.20;99.90;;;;;;4977282;28;19920;-71
2021/10/16 04:39:55;;;;;;;;;;;10.20;99.90;;;;;;4976775;28;20004;-73
2021/10/16 04:42:21;;;;;;;;;;;10.10;99.90;;;;;;4976681;28;19913;-73
2021/10/16 04:44:46;;;;;;;;;;;10.20;99.90;;;;;;4976907;28;20275;-72
2021/10/16 04:47:12;;;;;;;;;;;10.20;99.90;;;;;;4976587;28;19906;-71
2021/10/16 04:49:37;;;;;;;;;;;10.00;99.90;;;;;;4977112;28;20000;-74
2021/10/16 04:52:07;;;;;;;;;;;10.10;99.90;;;;;;4976494;28;19906;-74
2021/10/16 04:54:32;;;;;;;;;;;10.00;99.90;;;;;;4976733;28;20347;-73
2021/10/16 04:56:58;;;;;;;;;;;10.10;99.90;;;;;;4975957;28;19914;-75
2021/10/16 04:59:24;;;;;;;;;;;10.00;99.90;;;;;;4976333;28;19913;-71
2021/10/16 05:01:50;;;;;;;;;;;10.00;99.90;;;;;;4976900;28;20362;-69
2021/10/16 05:04:16;;;;;;;;;;;9.90;99.90;;;;;;4976291;28;20371;-73
2021/10/16 05:06:41;;;;;;;;;;;9.90;99.90;;;;;;4976453;28;19906;-71
2021/10/16 05:09:07;;;;;;;;;;;10.00;99.90;;;;;;4976171;28;19913;-70
2021/10/16 05:11:32;;;;;;;;;;;10.10;99.90;;;;;;4976112;28;19913;-76
2021/10/16 05:13:58;;;;;;;;;;;10.20;99.90;;;;;;4976387;28;19909;-74
2021/10/16 05:16:23;;;;;;;;;;;10.20;99.90;;;;;;4975999;28;19906;-74
2021/10/16 05:18:49;;;;;;;;;;;10.20;99.90;;;;;;4975961;28;19910;-71
2021/10/16 05:21:14;;;;;;;;;;;10.20;99.90;;;;;;4976229;28;19929;-74
2021/10/16 05:23:40;;;;;;;;;;;10.00;99.90;;;;;;4975724;28;19911;-74
2021/10/16 05:26:05;;;;;;;;;;;9.90;99.90;;;;;;4975674;28;19917;-73
2021/10/16 05:28:31;;;;;;;;;;;9.80;99.90;;;;;;4976375;28;20302;-74
2021/10/16 05:30:56;;;;;;;;;;;10.10;99.90;;;;;;4975811;28;19944;-72
2021/10/16 05:33:22;;;;;;;;;;;10.10;99.90;;;;;;4976020;28;19906;-71
2021/10/16 05:35:48;;;;;;;;;;;10.10;99.90;;;;;;4975665;28;19949;-74
2021/10/16 05:38:14;;;;;;;;;;;10.10;99.90;;;;;;4975652;28;19914;-75
2021/10/16 05:40:40;;;;;;;;;;;10.10;99.90;;;;;;4975655;28;19953;-72
2021/10/16 05:43:06;;;;;;;;;;;10.00;99.90;;;;;;4975652;28;19906;-71
2021/10/16 05:45:31;;;;;;;;;;;10.10;99.90;;;;;;4975819;28;20370;-72
2021/10/16 05:47:57;;;;;;;;;;;10.10;99.90;;;;;;4975502;28;19959;-75
2021/10/16 05:50:22;;;;;;;;;;;10.10;99.90;;;;;;4975495;28;20001;-72
2021/10/16 05:52:48;;;;;;;;;;;10.00;99.90;;;;;;4975406;28;20323;-73
2021/10/16 05:55:13;;;;;;;;;;;9.80;99.90;;;;;;4975395;28;19906;-72
2021/10/16 05:57:39;;;;;;;;;;;9.60;99.90;;;;;;4975282;28;19910;-70
2021/10/16 06:00:05;;;;;;;;;;;9.50;99.90;;;;;;4975580;28;19957;-74
2021/10/16 06:02:31;;;;;;;;;;;9.40;99.90;;;;;;4975294;28;19928;-75
2021/10/16 06:04:56;;;;;;;;;;;9.30;99.90;;;;;;4975769;28;20414;-72
2021/10/16 06:07:22;;;;;;;;;;;9.20;99.90;;;;;;4975179;28;19956;-74
2021/10/16 06:09:47;;;;;;;;;;;9.20;99.90;;;;;;4974842;28;19910;-71
2021/10/16 06:12:13;;;;;;;;;;;9.30;99.90;;;;;;4975685;28;20343;-72
2021/10/16 06:14:38;;;;;;;;;;;9.20;99.90;;;;;;4975055;28;19913;-74
2021/10/16 06:17:04;;;;;;;;;;;9.20;99.90;;;;;;4974993;28;19914;-71
2021/10/16 06:19:29;;;;;;;;;;;9.20;99.90;;;;;;4975602;28;19910;-75
2021/10/16 06:21:55;;;;;;;;;;;9.10;99.90;;;;;;4974959;28;19906;-72
2021/10/16 06:24:20;;;;;;;;;;;9.10;99.90;;;;;;4975236;28;19929;-71
2021/10/16 06:26:46;;;;;;;;;;;9.00;99.90;;;;;;4974595;28;19913;-74
2021/10/16 06:29:11;;;;;;;;;;;9.00;99.90;;;;;;4975512;28;19906;-71
2021/10/16 06:31:37;;;;;;;;;;;9.00;99.90;;;;;;4975215;28;19925;-70
2021/10/16 06:34:03;;;;;;;;;;;9.00;99.90;;;;;;4974894;28;19933;-74
2021/10/16 06:36:28;;;;;;;;;;;9.00;99.90;;;;;;4974836;28;19910;-71
2021/10/16 06:38:54;;;;;;;;;;;9.20;99.90;;;;;;4974853;28;19912;-73
2021/10/16 06:41:19;;;;;;;;;;;9.30;99.90;;;;;;4975096;28;19948;-75
2021/10/16 06:43:45;;;;;;;;;;;9.20;99.90;;;;;;4974840;28;19906;-74
2021/10/16 06:46:11;;;;;;;;;;;9.10;99.90;;;;;;4974813;28;20383;-72
2021/10/16 06:48:37;;;;;;;;;;;9.10;99.90;;;;;;4975103;28;20244;-70
2021/10/16 06:51:03;;;;;;;;;;;9.10;99.90;;;;;;4973253;28;19957;-72
2021/10/16 06:53:28;;;;;;;;;;;9.10;99.90;;;;;;4974841;28;20322;-72
2021/10/16 06:55:54;;;;;;;;;;;9.20;99.90;;;;;;4974691;28;20382;-74
2021/10/16 06:58:19;;;;;;;;;;;9.10;99.90;;;;;;4974898;28;20374;-74
2021/10/16 07:00:45;;;;;;;;;;;9.10;99.90;;;;;;4974635;28;19906;-73
2021/10/16 07:03:14;;;;;;;;;;;9.10;99.90;;;;;;4974653;28;19905;-73
2021/10/16 07:05:40;;;;;;;;;;;9.10;99.90;;;;;;4975141;28;20417;-71
2021/10/16 07:08:05;;;;;;;;;;;9.10;99.90;;;;;;4974607;28;19910;-73
2021/10/16 07:10:31;;;;;;;;;;;9.10;99.90;;;;;;4974597;28;20274;-73
2021/10/16 07:13:00;;;;;;;;;;;9.10;99.90;;;;;;4974566;28;19919;-73
2021/10/16 07:15:26;;;;;;;;;;;9.10;99.90;;;;;;4973346;28;19910;-73
2021/10/16 07:17:51;;;;;;;;;;;9.10;99.90;;;;;;4974694;28;20460;-72
2021/10/16 07:20:17;;;;;;;;;;;9.10;99.90;;;;;;4976852;28;19910;-70
2021/10/16 07:22:43;;;;;;;;;;;9.10;99.90;;;;;;4978321;28;20284;-73
2021/10/16 07:25:09;;;;;;;;;;;9.00;99.90;;;;;;4978156;28;19910;-75
2021/10/16 07:27:34;;;;;;;;;;;9.00;99.90;;;;;;4978407;28;19952;-72
2021/10/16 07:30:00;;;;;;;;;;;9.10;99.90;;;;;;4978035;28;20278;-72
2021/10/16 07:32:25;;;;;;;;;;;9.10;99.90;;;;;;4978266;28;20270;-74
2021/10/16 07:34:51;;;;;;;;;;;9.10;99.90;;;;;;4977947;28;19906;-71
2021/10/16 07:37:17;;;;;;;;;;;9.00;99.90;;;;;;4977872;28;20376;-74
2021/10/16 07:39:42;;;;;;;;;;;9.00;99.90;;;;;;4977838;28;19906;-73
2021/10/16 07:42:08;;;;;;;;;;;9.40;99.90;;;;;;4978043;28;19909;-74
2021/10/16 07:44:33;;;;;;;;;;;9.70;99.90;;;;;;4977751;28;19906;-72
2021/10/16 07:46:59;;;;;;;;;;;9.80;99.90;;;;;;4977972;28;19906;-75
2021/10/16 07:49:24;;;;;;;;;;;9.80;99.90;;;;;;4977698;28;19938;-75
2021/10/16 07:51:50;;;;;;;;;;;9.80;99.90;;;;;;4977888;28;19906;-75
2021/10/16 07:54:17;;;;;;;;;;;9.70;99.90;;;;;;4977594;28;19996;-75
2021/10/16 07:56:43;;;;;;;;;;;9.70;99.90;;;;;;4977464;28;19906;-74
2021/10/16 07:59:08;;;;;;;;;;;9.70;99.90;;;;;;4977519;28;19906;-74
2021/10/16 08:01:34;;;;;;;;;;;9.80;99.90;;;;;;4977720;28;20247;-75
2021/10/16 08:03:59;;;;;;;;;;;9.80;99.90;;;;;;4977400;28;20385;-74
2021/10/16 08:06:25;;;;;;;;;;;9.80;99.90;;;;;;4977347;28;19906;-72
2021/10/16 08:08:50;;;;;;;;;;;9.70;99.90;;;;;;4977288;28;20478;-71
2021/10/16 08:11:16;;;;;;;;;;;9.70;99.90;;;;;;4977831;28;19988;-71
2021/10/16 08:13:41;;;;;;;;;;;9.90;99.90;;;;;;4977271;28;20290;-74
2021/10/16 08:16:07;;;;;;;;;;;9.90;99.90;;;;;;4977462;28;19960;-72
2021/10/16 08:18:32;;;;;;;;;;;10.10;99.90;;;;;;4977046;28;20027;-72
2021/10/16 08:20:58;;;;;;;;;;;10.00;99.90;;;;;;4977116;28;19917;-74
2021/10/16 08:23:23;;;;;;;;;;;9.90;99.90;;;;;;4977098;28;20018;-70
2021/10/16 08:25:50;;;;;;;;;;;10.10;99.90;;;;;;4976978;28;19914;-71
2021/10/16 08:28:16;;;;;;;;;;;10.30;99.90;;;;;;4976991;28;19906;-71
2021/10/16 08:30:46;;;;;;;;;;;10.40;99.90;;;;;;4976886;28;19957;-71
2021/10/16 08:33:11;;;;;;;;;;;10.30;99.90;;;;;;4976894;28;19913;-72
2021/10/16 08:35:37;;;;;;;;;;;10.20;99.90;;;;;;4976840;28;20022;-74
2021/10/16 08:38:02;;;;;;;;;;;10.20;99.90;;;;;;4977281;28;19935;-74
2021/10/16 08:40:28;;;;;;;;;;;10.30;99.90;;;;;;4976766;28;19917;-72
2021/10/16 08:42:54;;;;;;;;;;;10.30;99.90;;;;;;4976900;28;20452;-76
2021/10/16 08:45:20;;;;;;;;;;;10.30;99.90;;;;;;4976950;28;19913;-82
2021/10/16 08:47:47;;;;;;;;;;;10.40;99.90;;;;;;4976581;28;19928;-78
2021/10/16 08:50:12;;;;;;;;;;;10.50;99.90;;;;;;4976838;28;19906;-78
2021/10/16 08:52:38;;;;;;;;;;;10.60;99.90;;;;;;4976524;28;19910;-79
2021/10/16 08:55:04;;;;;;;;;;;10.70;99.90;;;;;;4976436;28;20441;-79
2021/10/16 08:57:34;;;;;;;;;;;10.80;99.90;;;;;;4976260;28;19910;-75
2021/10/16 09:00:19;;;;;;;;;;;10.80;99.90;;;;;;4991292;28;19906;-75
2021/10/16 09:02:44;;;;;;;;;;;10.80;99.90;;;;;;4976237;28;19948;-75
2021/10/16 09:05:11;;;;;;;;;;;10.80;99.90;;;;;;4976572;28;19906;-79
2021/10/16 09:07:37;;;;;;;;;;;10.90;99.90;;;;;;4991153;28;19906;-80
2021/10/16 09:10:22;;;;;;;;;;;11.10;99.90;;;;;;4976190;28;19906;-77
2021/10/16 09:12:47;;;;;;;;;;;11.10;99.90;;;;;;4976185;28;19906;-73
2021/10/16 09:15:22;;;;;;;;;;;11.20;99.90;;;;;;4976468;28;20373;-72
2021/10/16 09:18:04;;;;;;;;;;;11.30;99.90;;;;;;4990822;28;20393;-71
2021/10/16 09:20:37;;;;;;;;;;;11.40;99.90;;;;;;4976046;28;19957;-73
2021/10/16 09:23:06;;;;;;;;;;;11.40;99.90;;;;;;4975924;28;19910;-72
2021/10/16 09:25:31;;;;;;;;;;;11.40;99.90;;;;;;4975923;28;20017;-70
2021/10/16 09:28:16;;;;;;;;;;;11.50;99.90;;;;;;4975906;28;19949;-72
2021/10/16 09:30:48;;;;;;;;;;;11.60;99.90;;;;;;4975854;28;19906;-71
2021/10/16 09:33:14;;;;;;;;;;;11.80;99.90;;;;;;4976048;28;19912;-81
2021/10/16 09:35:40;;;;;;;;;;;11.80;99.90;;;;;;4975645;28;19910;-80
2021/10/16 09:38:05;;;;;;;;;;;11.80;99.90;;;;;;4976128;28;19914;-77
2021/10/16 09:40:35;;;;;;;;;;;11.90;99.90;;;;;;4975832;28;19906;-76
2021/10/16 09:43:16;;;;;;;;;;;12.10;99.90;;;;;;4974946;28;19929;-76
2021/10/16 09:45:41;;;;;;;;;;;12.30;99.90;;;;;;4975582;28;20361;-77
2021/10/16 09:48:09;;;;;;;;;;;12.30;99.90;;;;;;4975689;28;19906;-77
2021/10/16 09:50:35;;;;;;;;;;;12.30;99.90;;;;;;4975407;28;19962;-79
2021/10/16 09:53:16;;;;;;;;;;;12.20;99.90;;;;;;4975355;28;19964;-79
2021/10/16 09:55:42;;;;;;;;;;;12.20;99.90;;;;;;4975923;28;19913;-79
2021/10/16 09:58:08;;;;;;;;;;;12.30;99.90;;;;;;4975187;28;20005;-76
2021/10/16 10:00:35;;;;;;;;;;;12.40;99.90;;;;;;4975057;28;20354;-74
2021/10/16 10:03:01;;;;;;;;;;;12.70;99.90;;;;;;4975220;28;20274;-73
2021/10/16 10:05:27;;;;;;;;;;;12.70;99.90;;;;;;4973986;28;19906;-72
2021/10/16 10:07:53;;;;;;;;;;;12.70;99.90;;;;;;4975273;28;20318;-73
2021/10/16 10:10:18;;;;;;;;;;;12.80;99.90;;;;;;4975723;28;19906;-76
2021/10/16 10:12:44;;;;;;;;;;;13.10;99.90;;;;;;4975151;28;19997;-76
2021/10/16 10:15:10;;;;;;;;;;;13.30;99.90;;;;;;4975373;28;19913;-75
2021/10/16 10:17:36;;;;;;;;;;;13.60;99.90;;;;;;4973655;28;19910;-73
2021/10/16 10:20:07;;;;;;;;;;;13.90;99.90;;;;;;4975265;28;19985;-74
2021/10/16 10:22:34;;;;;;;;;;;13.80;99.90;;;;;;4974854;28;19906;-70
2021/10/16 10:24:59;;;;;;;;;;;13.80;99.90;;;;;;4975058;28;20001;-70
2021/10/16 10:27:25;;;;;;;;;;;13.80;99.90;;;;;;4975574;28;19945;-70
2021/10/16 10:29:52;;;;;;;;;;;13.80;99.90;;;;;;4974936;28;20326;-74
2021/10/16 10:32:22;;;;;;;;;;;13.90;99.90;;;;;;4975532;28;19945;-71
2021/10/16 10:34:52;;;;;;;;;;;13.80;99.90;;;;;;4974842;28;19985;-73
2021/10/16 10:37:18;;;;;;;;;;;13.90;99.90;;;;;;4975401;28;19918;-73
2021/10/16 10:39:46;;;;;;;;;;;13.90;99.90;;;;;;4975150;28;19914;-74
2021/10/16 10:42:11;;;;;;;;;;;13.90;99.90;;;;;;4975178;28;19950;-74
2021/10/16 10:44:41;;;;;;;;;;;14.00;99.90;;;;;;4974811;28;19914;-71
2021/10/16 10:47:25;;;;;;;;;;;13.90;99.90;;;;;;4975379;28;19992;-74
2021/10/16 10:49:51;;;;;;;;;;;13.90;99.90;;;;;;4974759;28;19989;-73
2021/10/16 10:52:17;;;;;;;;;;;13.80;99.90;;;;;;4974758;28;20022;-71
2021/10/16 10:54:58;;;;;;;;;;;13.90;99.90;;;;;;4976630;28;19906;-71
2021/10/16 10:57:42;;;;;;;;;;;13.90;99.90;;;;;;4978551;28;19909;-74
2021/10/16 11:00:10;;;;;;;;;;;13.90;99.90;;;;;;4978865;28;19924;-73
2021/10/16 11:02:35;;;;;;;;;;;13.90;99.90;;;;;;4978565;28;19997;-71
2021/10/16 11:05:03;;;;;;;;;;;13.90;99.90;;;;;;4979044;28;19941;-72
2021/10/16 11:07:41;;;;;;;;;;;14.00;99.90;;;;;;4978532;28;19910;-71
2021/10/16 11:10:06;;;;;;;;;;;14.00;99.90;;;;;;4979059;28;19906;-70
2021/10/16 11:12:34;;;;;;;;;;;13.90;99.90;;;;;;4978371;28;19913;-72
2021/10/16 11:15:01;;;;;;;;;;;13.90;99.90;;;;;;4978656;28;19993;-71
2021/10/16 11:17:37;;;;;;;;;;;14.00;99.90;;;;;;4978248;28;19910;-70
2021/10/16 11:20:03;;;;;;;;;;;14.00;99.90;;;;;;4978514;28;19906;-71
2021/10/16 11:22:40;;;;;;;;;;;14.10;99.90;;;;;;4978162;28;19942;-75
2021/10/16 11:25:06;;;;;;;;;;;14.10;99.90;;;;;;4977951;28;19918;-75
2021/10/16 11:27:31;;;;;;;;;;;14.10;99.90;;;;;;4978394;28;20274;-72
2021/10/16 11:29:57;;;;;;;;;;;14.20;99.90;;;;;;4978064;28;19906;-72
2021/10/16 11:32:23;;;;;;;;;;;14.20;99.90;;;;;;4977986;28;20366;-68
2021/10/16 11:35:05;;;;;;;;;;;14.20;99.90;;;;;;4977996;28;19914;-73
2021/10/16 11:37:33;;;;;;;;;;;14.20;99.90;;;;;;4978147;28;19914;-70
2021/10/16 11:40:00;;;;;;;;;;;14.20;99.90;;;;;;4977913;28;20018;-73
2021/10/16 11:42:25;;;;;;;;;;;14.30;99.90;;;;;;4978140;28;19965;-72
2021/10/16 11:44:51;;;;;;;;;;;14.40;99.90;;;;;;4977802;28;20350;-71
2021/10/16 11:47:18;;;;;;;;;;;14.40;99.90;;;;;;4978261;28;20354;-70
2021/10/16 11:49:43;;;;;;;;;;;14.40;99.90;;;;;;4977702;28;19914;-74
2021/10/16 11:52:22;;;;;;;;;;;14.40;99.90;;;;;;4977675;28;20294;-72
2021/10/16 11:54:47;;;;;;;;;;;14.40;99.90;;;;;;4977630;28;19998;-73
2021/10/16 11:57:23;;;;;;;;;;;14.50;99.90;;;;;;4977771;28;20008;-71
2021/10/16 11:59:49;;;;;;;;;;;14.70;99.90;;;;;;4977599;28;19906;-73
2021/10/16 12:02:31;;;;;;;;;;;14.90;99.90;;;;;;4978030;28;19906;-71
2021/10/16 12:05:12;;;;;;;;;;;14.90;99.90;;;;;;4977456;28;19906;-71
2021/10/16 12:07:38;;;;;;;;;;;14.90;99.90;;;;;;4977261;28;19910;-74
2021/10/16 12:10:20;;;;;;;;;;;14.90;99.90;;;;;;4977365;28;19906;-75
2021/10/16 12:13:04;;;;;;;;;;;15.00;99.90;;;;;;4977328;28;19993;-73
2021/10/16 12:15:33;;;;;;;;;;;15.00;99.90;;;;;;4977241;28;19912;-72
2021/10/16 12:17:58;;;;;;;;;;;15.10;99.90;;;;;;4977108;28;19976;-70
2021/10/16 12:20:24;;;;;;;;;;;15.10;99.90;;;;;;4977125;28;20374;-72
2021/10/16 12:22:59;;;;;;;;;;;15.20;99.90;;;;;;4977310;28;19938;-73
2021/10/16 12:25:25;;;;;;;;;;;15.20;99.90;;;;;;4976885;28;19910;-72
2021/10/16 12:28:03;;;;;;;;;;;15.30;99.90;;;;;;4977022;28;19929;-71
2021/10/16 12:30:29;;;;;;;;;;;15.40;99.90;;;;;;4977013;28;19910;-74
2021/10/16 12:33:05;;;;;;;;;;;15.30;99.90;;;;;;4976949;28;20377;-71
2021/10/16 12:35:31;;;;;;;;;;;15.30;99.90;;;;;;4976870;28;19906;-74
2021/10/16 12:37:58;;;;;;;;;;;15.40;99.90;;;;;;4977016;28;20354;-70
2021/10/16 12:40:50;;;;;;;;;;;15.40;99.90;;;;;;4976844;28;19906;-73
2021/10/16 12:43:27;;;;;;;;;;;15.40;99.90;;;;;;4974968;28;20351;-72
2021/10/16 12:45:55;;;;;;;;;;;15.50;99.90;;;;;;4975200;28;19906;-73
2021/10/16 12:48:30;;;;;;;;;;;15.70;99.90;;;;;;4977209;28;19980;-72
2021/10/16 12:50:57;;;;;;;;;;;15.70;99.90;;;;;;4976928;28;20001;-68
2021/10/16 12:53:23;;;;;;;;;;;15.80;99.90;;;;;;4976561;28;19906;-72
2021/10/16 12:55:48;;;;;;;;;;;15.80;99.90;;;;;;4976521;28;20437;-74
2021/10/16 12:58:15;;;;;;;;;;;15.90;99.90;;;;;;4976687;28;19910;-73
2021/10/16 13:00:45;;;;;;;;;;;15.90;99.90;;;;;;4976436;28;19906;-71
2021/10/16 13:03:11;;;;;;;;;;;15.90;99.90;;;;;;4976365;28;19912;-71
2021/10/16 13:05:37;;;;;;;;;;;15.90;99.90;;;;;;4976638;28;20270;-75
2021/10/16 13:08:03;;;;;;;;;;;16.00;99.90;;;;;;4976291;28;19906;-73
2021/10/16 13:10:29;;;;;;;;;;;16.00;99.90;;;;;;4976815;28;19942;-72
2021/10/16 13:12:54;;;;;;;;;;;16.10;99.90;;;;;;4976158;28;20349;-70
2021/10/16 13:15:20;;;;;;;;;;;16.20;99.90;;;;;;4976436;28;19957;-71
2021/10/16 13:17:46;;;;;;;;;;;16.20;99.90;;;;;;4975809;28;20355;-71
2021/10/16 13:20:13;;;;;;;;;;;16.20;99.90;;;;;;4976091;28;19906;-73
2021/10/16 13:22:38;;;;;;;;;;;16.20;99.90;;;;;;4975882;28;19956;-73
2021/10/16 13:25:05;;;;;;;;;;;16.20;99.90;;;;;;4976255;28;19993;-72
2021/10/16 13:27:30;;;;;;;;;;;16.20;99.90;;;;;;4976518;28;19906;-74
2021/10/16 13:29:56;;;;;;;;;;;16.20;99.90;;;;;;4976151;28;19906;-74
2021/10/16 13:32:22;;;;;;;;;;;16.30;99.90;;;;;;4975833;28;19938;-73
2021/10/16 13:34:48;;;;;;;;;;;16.40;99.90;;;;;;4975787;28;19910;-70
2021/10/16 13:37:14;;;;;;;;;;;16.40;99.90;;;;;;4975942;28;19914;-71
2021/10/16 13:39:40;;;;;;;;;;;16.40;99.90;;;;;;4975670;28;19910;-74
2021/10/16 13:42:05;;;;;;;;;;;16.40;99.90;;;;;;4975952;28;19906;-73
2021/10/16 13:44:31;;;;;;;;;;;16.40;99.90;;;;;;4975609;28;19906;-71
2021/10/16 13:46:57;;;;;;;;;;;16.40;99.90;;;;;;4975569;28;20272;-73
2021/10/16 13:49:22;;;;;;;;;;;16.50;99.90;;;;;;4975540;28;19910;-75
2021/10/16 13:51:48;;;;;;;;;;;16.40;99.90;;;;;;4976020;28;19926;-71
2021/10/16 13:54:14;;;;;;;;;;;16.40;99.90;;;;;;4975510;28;19956;-74
2021/10/16 13:56:39;;;;;;;;;;;16.40;99.90;;;;;;4975421;28;19906;-73
2021/10/16 13:59:05;;;;;;;;;;;16.40;99.90;;;;;;4975863;28;19913;-72
2021/10/16 14:01:31;;;;;;;;;;;16.40;99.90;;;;;;4975372;28;19913;-75
2021/10/16 14:03:56;;;;;;;;;;;16.40;99.90;;;;;;4975910;28;20016;-70
2021/10/16 14:06:22;;;;;;;;;;;16.40;99.90;;;;;;4975234;28;20363;-75
2021/10/16 14:08:47;;;;;;;;;;;16.40;99.90;;;;;;4975751;28;19906;-73
2021/10/16 14:11:13;;;;;;;;;;;16.40;99.90;;;;;;4975441;28;19910;-73
2021/10/16 14:13:39;;;;;;;;;;;16.40;99.90;;;;;;4975164;28;19914;-72
2021/10/16 14:16:08;;;;;;;;;;;16.40;99.90;;;;;;4975150;28;19910;-71